Time;durP1;ratioP1;P1;durP2;ratioP2;P2;SDS_P1;SDS_P2;PMS_P1;PMS_P2;Temp;Humidity;BMP_temperature;BMP_pressure;BME280_temperature;BME280_humidity;BME280_pressure;Samples;Min_cycle;Max_cycle;Signal;HPM_P1;HPM_P2
2022/08/11 00:00:51;;;;;;;11.75;10.50;;;;;;;;;;4917124;29;20075;-81
2022/08/11 00:03:16;;;;;;;;;;;;;;;;;;4885411;29;20035;-82
2022/08/11 00:05:50;;;;;;;12.70;10.20;;;;;;;;;;4916067;29;19925;-83
2022/08/11 00:08:21;;;;;;;13.88;10.95;;;;;;;;;;4917055;29;20024;-81
2022/08/11 00:10:57;;;;;;;10.23;8.57;;;;;;;;;;4868117;29;20047;-82
2022/08/11 00:13:22;;;;;;;9.68;8.68;;;;;;;;;;4917321;29;20463;-81
2022/08/11 00:15:48;;;;;;;13.25;9.15;;;;;;;;;;4915910;29;20064;-79
2022/08/11 00:18:13;;;;;;;12.63;10.32;;;;;;;;;;4931846;29;20071;-80
2022/08/11 00:20:40;;;;;;;13.40;11.57;;;;;;;;;;4898491;29;20042;-81
2022/08/11 00:23:10;;;;;;;11.82;10.57;;;;;;;;;;4915611;29;20027;-81
2022/08/11 00:25:45;;;;;;;13.35;11.55;;;;;;;;;;4884707;29;20130;-81
2022/08/11 00:28:32;;;;;;;21.70;13.27;;;;;;;;;;4899236;29;20040;-80
2022/08/11 00:30:58;;;;;;;14.63;11.52;;;;;;;;;;4927671;29;20038;-81
2022/08/11 00:33:31;;;;;;;15.95;11.77;;;;;;;;;;4915408;29;20464;-80
2022/08/11 00:35:57;;;;;;;15.32;12.35;;;;;;;;;;4914834;29;20099;-81
2022/08/11 00:38:25;;;;;;;17.17;13.23;;;;;;;;;;4903073;29;20134;-81
2022/08/11 00:41:23;;;;;;;16.73;12.77;;;;;;;;;;4884241;29;20437;-81
2022/08/11 00:44:21;;;;;;;18.65;14.80;;;;;;;;;;4880149;29;20044;-81
2022/08/11 00:47:11;;;;;;;24.50;15.43;;;;;;;;;;4910900;29;20050;-81
2022/08/11 00:49:51;;;;;;;24.55;16.73;;;;;;;;;;4911882;29;20032;-81
2022/08/11 00:52:35;;;;;;;24.02;15.82;;;;;;;;;;4879880;29;20028;-82
2022/08/11 00:55:32;;;;;;;19.85;15.68;;;;;;;;;;4897700;29;20035;-81
2022/08/11 00:58:16;;;;;;;23.40;15.13;;;;;;;;;;4880435;29;20044;-81
2022/08/11 01:01:00;;;;;;;19.63;16.88;;;;;;;;;;4883862;29;20052;-81
2022/08/11 01:03:37;;;;;;;23.08;18.17;;;;;;;;;;4909876;29;20354;-78
2022/08/11 01:06:31;;;;;;;25.25;16.48;;;;;;;;;;4890433;29;20059;-78
2022/08/11 01:09:07;;;;;;;22.77;17.52;;;;;;;;;;4911579;29;20040;-78
2022/08/11 01:11:58;;;;;;;26.77;18.67;;;;;;;;;;4894177;29;20042;-79
2022/08/11 01:15:08;;;;;;;23.05;16.25;;;;;;;;;;4897214;29;20079;-79
2022/08/11 01:18:08;;;;;;;23.25;16.73;;;;;;;;;;4880506;29;20123;-79
2022/08/11 01:21:01;;;;;;;24.63;17.08;;;;;;;;;;4908728;29;20464;-79
2022/08/11 01:23:39;;;;;;;23.20;17.58;;;;;;;;;;4910380;29;20163;-79
2022/08/11 01:26:43;;;;;;;21.65;16.33;;;;;;;;;;4908892;29;20063;-79
2022/08/11 01:29:47;;;;;;;20.30;17.25;;;;;;;;;;4895813;29;20674;-78
2022/08/11 01:32:22;;;;;;;19.65;16.35;;;;;;;;;;4878062;29;20036;-78
2022/08/11 01:35:15;;;;;;;23.75;16.92;;;;;;;;;;4908909;29;20036;-79
2022/08/11 01:37:55;;;;;;;27.38;20.92;;;;;;;;;;4892490;29;20032;-79
2022/08/11 01:40:39;;;;;;;28.98;21.58;;;;;;;;;;4893542;29;20354;-79
2022/08/11 01:46:37;;;;;;;29.73;22.13;;;;;;;;;;4883003;29;20054;-77
2022/08/11 01:49:38;;;;;;;28.27;22.17;;;;;;;;;;4868989;29;20363;-77
2022/08/11 01:52:19;;;;;;;31.55;21.02;;;;;;;;;;4876237;29;20675;-78
2022/08/11 01:55:25;;;;;;;28.95;21.90;;;;;;;;;;4909818;29;20070;-77
2022/08/11 01:58:07;;;;;;;32.47;21.65;;;;;;;;;;4907284;29;20497;-79
2022/08/11 02:00:47;;;;;;;37.70;22.30;;;;;;;;;;4908585;29;20054;-79
2022/08/11 02:03:20;;;;;;;36.95;22.20;;;;;;;;;;4847138;29;20064;-77
2022/08/11 02:06:53;;;;;;;36.22;21.95;;;;;;;;;;4863563;29;20615;-77
2022/08/11 02:09:04;;;;;;;36.70;23.27;;;;;;;;;;4909086;29;20036;-78
2022/08/11 02:11:30;;;;;;;40.58;27.38;;;;;;;;;;4909499;29;20039;-77
2022/08/11 02:14:11;;;;;;;40.30;25.88;;;;;;;;;;4876750;29;20211;-78
2022/08/11 02:17:08;;;;;;;36.20;26.63;;;;;;;;;;4922867;29;20047;-78
2022/08/11 02:26:02;;;;;;;37.58;25.77;;;;;;;;;;4894742;29;20434;-77
2022/08/11 02:28:33;;;;;;;41.13;27.70;;;;;;;;;;4875637;29;20647;-77
2022/08/11 02:34:02;;;;;;;39.92;27.48;;;;;;;;;;4896514;29;20331;-77
2022/08/11 02:36:36;;;;;;;37.30;27.05;;;;;;;;;;4876533;29;21353;-76
2022/08/11 02:39:13;;;;;;;37.63;25.77;;;;;;;;;;4861948;29;20039;-78
2022/08/11 02:44:50;;;;;;;42.70;25.65;;;;;;;;;;4938609;28;20445;-77
2022/08/11 02:47:37;;;;;;;38.03;28.15;;;;;;;;;;4895583;29;20028;-77
2022/08/11 02:50:34;;;;;;;44.38;28.80;;;;;;;;;;4909006;29;20421;-77
2022/08/11 02:53:05;;;;;;;45.78;30.20;;;;;;;;;;4923738;29;20036;-77
2022/08/11 02:55:34;;;;;;;45.13;31.33;;;;;;;;;;4895703;29;20043;-77
2022/08/11 02:58:13;;;;;;;43.35;31.17;;;;;;;;;;4894305;29;20798;-77
2022/08/11 03:00:49;;;;;;;44.97;29.20;;;;;;;;;;4926587;29;20509;-77
2022/08/11 03:03:22;;;;;;;42.08;29.08;;;;;;;;;;4879748;29;20070;-77
2022/08/11 03:06:07;;;;;;;42.92;28.92;;;;;;;;;;4892952;29;20019;-77
2022/08/11 03:08:57;;;;;;;43.35;29.48;;;;;;;;;;4893765;29;20584;-77
2022/08/11 03:17:56;;;;;;;47.90;34.00;;;;;;;;;;4911399;29;20063;-77
2022/08/11 03:20:21;;;;;;;48.47;32.83;;;;;;;;;;4893994;29;20023;-77
2022/08/11 03:23:02;;;;;;;55.78;35.50;;;;;;;;;;4927190;29;20039;-77
2022/08/11 03:25:43;;;;;;;55.67;36.30;;;;;;;;;;4896837;29;20019;-77
2022/08/11 03:28:13;;;;;;;49.30;32.42;;;;;;;;;;4912004;29;20032;-76
2022/08/11 03:30:50;;;;;;;49.38;32.15;;;;;;;;;;4878384;29;20032;-77
2022/08/11 03:36:19;;;;;;;60.28;37.60;;;;;;;;;;4912425;29;20095;-77
2022/08/11 03:38:51;;;;;;;65.15;40.83;;;;;;;;;;4893355;29;20437;-77
2022/08/11 03:41:44;;;;;;;66.53;41.95;;;;;;;;;;4909344;29;20048;-77
2022/08/11 03:44:28;;;;;;;67.28;43.13;;;;;;;;;;4892536;29;20028;-77
2022/08/11 03:47:05;;;;;;;71.97;45.17;;;;;;;;;;4892535;29;20039;-77
2022/08/11 03:49:56;;;;;;;69.53;44.63;;;;;;;;;;4882739;29;20100;-77
2022/08/11 03:52:40;;;;;;;58.28;39.15;;;;;;;;;;4926102;29;20024;-77
2022/08/11 03:55:20;;;;;;;67.70;41.28;;;;;;;;;;4926038;29;20055;-77
2022/08/11 03:58:28;;;;;;;63.30;40.05;;;;;;;;;;4910278;29;20029;-80
2022/08/11 04:01:13;;;;;;;71.25;44.13;;;;;;;;;;4925119;29;21359;-78
2022/08/11 04:04:05;;;;;;;70.30;44.22;;;;;;;;;;4926646;29;20032;-77
2022/08/11 04:06:43;;;;;;;71.47;44.17;;;;;;;;;;4911401;29;20126;-77
2022/08/11 04:09:34;;;;;;;78.53;45.78;;;;;;;;;;4894301;29;20024;-78
2022/08/11 04:12:29;;;;;;;73.75;46.78;;;;;;;;;;4896057;29;20042;-77
2022/08/11 04:18:38;;;;;;;80.05;49.47;;;;;;;;;;4901296;29;20456;-77
2022/08/11 04:21:42;;;;;;;74.22;45.53;;;;;;;;;;4908115;29;20036;-76
2022/08/11 04:24:07;;;;;;;78.47;47.83;;;;;;;;;;4921149;29;20132;-77
2022/08/11 04:27:00;;;;;;;72.97;45.92;;;;;;;;;;4925965;29;20036;-77
2022/08/11 04:30:23;;;;;;;77.53;46.97;;;;;;;;;;4875035;29;20467;-76
2022/08/11 04:33:05;;;;;;;79.15;46.63;;;;;;;;;;4838282;29;20052;-77
2022/08/11 04:35:43;;;;;;;82.40;48.80;;;;;;;;;;4838970;29;20040;-79
2022/08/11 04:38:31;;;;;;;82.30;48.38;;;;;;;;;;4881216;29;20075;-80
2022/08/11 04:41:26;;;;;;;72.80;45.42;;;;;;;;;;4913953;29;20526;-80
2022/08/11 04:44:28;;;;;;;82.32;49.10;;;;;;;;;;4933775;29;20142;-80
2022/08/11 05:01:39;;;;;;;71.35;44.78;;;;;;;;;;4917956;29;20043;-80
2022/08/11 05:03:01;;;;;;;86.53;49.65;;;;;;;;;;4915937;29;20028;-80
2022/08/11 05:05:35;;;;;;;85.18;50.70;;;;;;;;;;4875547;29;20033;-80
2022/08/11 05:08:15;;;;;;;74.22;48.78;;;;;;;;;;4890405;29;20295;-80
2022/08/11 05:10:56;;;;;;;96.68;53.47;;;;;;;;;;4884715;29;20047;-79
2022/08/11 05:36:49;;;;;;;79.60;50.13;;;;;;;;;;4934249;29;20052;-79
2022/08/11 05:58:32;;;;;;;65.93;44.05;;;;;;;;;;4915599;29;20086;-80
2022/08/11 06:00:58;;;;;;;78.05;46.75;;;;;;;;;;4897324;29;20060;-80
2022/08/11 06:03:28;;;;;;;71.65;46.50;;;;;;;;;;4911619;29;20559;-80
2022/08/11 06:05:53;;;;;;;68.68;43.60;;;;;;;;;;4917447;29;20124;-80
2022/08/11 06:08:27;;;;;;;77.63;46.83;;;;;;;;;;4916794;29;20400;-80
2022/08/11 06:10:52;;;;;;;61.47;41.78;;;;;;;;;;4932764;29;20411;-79
2022/08/11 06:13:17;;;;;;;61.10;42.15;;;;;;;;;;4917803;29;20055;-80
2022/08/11 06:15:47;;;;;;;54.45;40.00;;;;;;;;;;4948154;29;20041;-79
2022/08/11 06:18:13;;;;;;;61.97;40.75;;;;;;;;;;4933351;29;20035;-79
2022/08/11 06:20:52;;;;;;;58.08;38.05;;;;;;;;;;4934032;29;20039;-79
2022/08/11 06:23:19;;;;;;;47.88;36.67;;;;;;;;;;4933646;29;20035;-81
2022/08/11 06:25:44;;;;;;;56.08;36.13;;;;;;;;;;4918227;29;20032;-80
2022/08/11 06:28:10;;;;;;;44.47;32.47;;;;;;;;;;4918097;29;20035;-81
2022/08/11 06:30:40;;;;;;;54.90;34.97;;;;;;;;;;4901673;29;20036;-81
2022/08/11 06:33:15;;;;;;;37.85;30.33;;;;;;;;;;4948522;29;20028;-81
2022/08/11 06:35:45;;;;;;;39.55;29.08;;;;;;;;;;4932768;29;20110;-80
2022/08/11 06:38:15;;;;;;;36.20;27.08;;;;;;;;;;4949439;29;20047;-80
2022/08/11 06:44:15;;;;;;;28.98;21.60;;;;;;;;;;4933444;29;20047;-81
2022/08/11 06:46:42;;;;;;;28.67;19.17;;;;;;;;;;4934518;29;20051;-80
2022/08/11 06:51:55;;;;;;;25.15;15.10;;;;;;;;;;4918909;29;20079;-80
2022/08/11 06:54:20;;;;;;;15.60;13.35;;;;;;;;;;4932991;29;20042;-80
2022/08/11 07:02:21;;;;;;;13.18;8.95;;;;;;;;;;4932758;29;20032;-80
2022/08/11 07:05:06;;;;;;;12.23;8.20;;;;;;;;;;4931509;29;20059;-81
2022/08/11 07:16:50;;;;;;;4.85;3.55;;;;;;;;;;4903596;29;20094;-81
2022/08/11 07:30:28;;;;;;;8.32;3.03;;;;;;;;;;4919781;29;20043;-81
2022/08/11 07:32:55;;;;;;;4.55;2.40;;;;;;;;;;4932183;29;20094;-81
2022/08/11 07:35:25;;;;;;;5.68;2.75;;;;;;;;;;4931952;29;20032;-81
2022/08/11 07:37:54;;;;;;;6.90;2.60;;;;;;;;;;4930644;29;20028;-81
2022/08/11 07:40:23;;;;;;;5.57;2.30;;;;;;;;;;4888362;29;20534;-81
2022/08/11 07:42:49;;;;;;;10.82;2.63;;;;;;;;;;4912404;29;20047;-81
2022/08/11 07:53:29;;;;;;;5.30;2.10;;;;;;;;;;4899733;29;20039;-82
2022/08/11 07:55:56;;;;;;;4.95;2.15;;;;;;;;;;4881889;29;20405;-82
2022/08/11 08:17:48;;;;;;;5.40;1.80;;;;;;;;;;4917045;29;20028;-82
2022/08/11 08:20:13;;;;;;;3.50;1.30;;;;;;;;;;4898342;29;20407;-82
2022/08/11 08:22:39;;;;;;;7.00;1.30;;;;;;;;;;4912520;29;20037;-81
2022/08/11 08:25:04;;;;;;;3.63;1.50;;;;;;;;;;4897644;29;20107;-80
2022/08/11 08:27:30;;;;;;;8.38;1.80;;;;;;;;;;4882613;29;20437;-81
2022/08/11 08:32:40;;;;;;;4.10;1.63;;;;;;;;;;4893674;29;20040;-82
2022/08/11 08:35:06;;;;;;;7.55;1.63;;;;;;;;;;4899538;29;20071;-81
2022/08/11 08:37:32;;;;;;;5.07;1.60;;;;;;;;;;4884812;29;20028;-82
2022/08/11 08:39:57;;;;;;;6.10;1.60;;;;;;;;;;4917951;29;20386;-81
2022/08/11 08:42:28;;;;;;;5.85;1.90;;;;;;;;;;4884601;29;20043;-82
2022/08/11 08:45:10;;;;;;;8.50;1.90;;;;;;;;;;4916441;29;20046;-82
2022/08/11 08:47:37;;;;;;;7.97;2.00;;;;;;;;;;4900776;29;20024;-83
2022/08/11 08:50:06;;;;;;;5.97;1.90;;;;;;;;;;4900080;29;20501;-82
2022/08/11 08:52:34;;;;;;;5.72;1.88;;;;;;;;;;4885321;29;20059;-82
2022/08/11 08:55:02;;;;;;;9.07;1.90;;;;;;;;;;4900341;29;20111;-82
2022/08/11 08:57:27;;;;;;;7.45;1.60;;;;;;;;;;4869038;29;20123;-82
2022/08/11 08:59:52;;;;;;;5.15;1.45;;;;;;;;;;4900739;29;20032;-82
2022/08/11 09:02:19;;;;;;;3.08;1.50;;;;;;;;;;4869087;29;20056;-83
2022/08/11 09:04:45;;;;;;;6.32;2.00;;;;;;;;;;4884956;29;20032;-82
2022/08/11 09:07:15;;;;;;;5.05;1.40;;;;;;;;;;4899810;29;20084;-82
2022/08/11 09:09:48;;;;;;;5.00;1.77;;;;;;;;;;4915820;29;20067;-82
2022/08/11 09:12:13;;;;;;;4.28;1.63;;;;;;;;;;4900090;29;20026;-83
2022/08/11 09:17:26;;;;;;;5.55;2.03;;;;;;;;;;4902209;29;20035;-82
2022/08/11 09:19:57;;;;;;;5.53;1.83;;;;;;;;;;4899023;29;20424;-82
2022/08/11 09:27:52;;;;;;;7.55;1.40;;;;;;;;;;4902013;29;20032;-82
2022/08/11 09:30:18;;;;;;;7.30;1.95;;;;;;;;;;4931186;29;20559;-82
2022/08/11 09:32:43;;;;;;;5.85;1.40;;;;;;;;;;4884042;29;20035;-82
2022/08/11 09:35:09;;;;;;;3.65;1.58;;;;;;;;;;4915410;29;20518;-82
2022/08/11 09:40:32;;;;;;;6.53;1.50;;;;;;;;;;4911089;29;20040;-82
2022/08/11 09:45:45;;;;;;;6.65;2.00;;;;;;;;;;4933477;29;20032;-82
2022/08/11 09:48:10;;;;;;;4.72;1.63;;;;;;;;;;4933748;29;20040;-82
2022/08/11 09:50:39;;;;;;;5.90;1.60;;;;;;;;;;4918901;29;20102;-82
2022/08/11 09:53:05;;;;;;;3.65;1.85;;;;;;;;;;4917721;29;20059;-81
2022/08/11 09:55:31;;;;;;;6.05;2.03;;;;;;;;;;4934704;29;20131;-81
2022/08/11 09:58:12;;;;;;;7.18;1.60;;;;;;;;;;4902438;29;20087;-81
2022/08/11 10:00:47;;;;;;;5.05;1.70;;;;;;;;;;4898547;29;20035;-82
2022/08/11 10:03:18;;;;;;;5.43;1.42;;;;;;;;;;4895984;29;20395;-83
2022/08/11 10:08:28;;;;;;;5.55;1.55;;;;;;;;;;4903029;29;20020;-83
2022/08/11 10:10:54;;;;;;;9.25;1.92;;;;;;;;;;4925686;29;20562;-83
2022/08/11 10:13:24;;;;;;;6.03;2.00;;;;;;;;;;4907474;29;20496;-83
2022/08/11 10:15:50;;;;;;;8.02;1.80;;;;;;;;;;4943855;28;20087;-82
2022/08/11 10:21:42;;;;;;;6.07;2.05;;;;;;;;;;4938969;28;20028;-81
2022/08/11 10:26:53;;;;;;;4.70;2.08;;;;;;;;;;4904798;29;20106;-82
2022/08/11 10:35:13;;;;;;;6.75;1.67;;;;;;;;;;4906591;29;20038;-82
2022/08/11 10:37:38;;;;;;;5.82;2.25;;;;;;;;;;4891728;29;20404;-82
2022/08/11 10:40:04;;;;;;;4.22;1.80;;;;;;;;;;4899372;29;20046;-82
2022/08/11 10:47:58;;;;;;;6.97;2.45;;;;;;;;;;4915609;29;20030;-82
2022/08/11 11:01:14;;;;;;;4.28;1.90;;;;;;;;;;4918151;29;20043;-81
2022/08/11 11:03:39;;;;;;;6.53;1.90;;;;;;;;;;4912715;29;20023;-81
2022/08/11 11:06:26;;;;;;;3.05;1.50;;;;;;;;;;4921885;29;20035;-82
2022/08/11 11:08:56;;;;;;;3.95;1.80;;;;;;;;;;4912987;29;20034;-82
2022/08/11 11:17:54;;;;;;;7.00;1.88;;;;;;;;;;4895050;29;20055;-81
2022/08/11 11:19:37;;;;;;;5.05;1.88;;;;;;;;;;4910321;29;20110;-82
2022/08/11 11:22:36;;;;;;;3.67;1.80;;;;;;;;;;4894837;29;20333;-82
2022/08/11 11:24:57;;;;;;;6.60;1.80;;;;;;;;;;4931596;29;20114;-82
2022/08/11 11:27:35;;;;;;;4.03;1.35;;;;;;;;;;4895843;29;20032;-82
2022/08/11 11:30:06;;;;;;;3.38;1.48;;;;;;;;;;4882283;29;20035;-82
2022/08/11 11:32:34;;;;;;;4.63;1.75;;;;;;;;;;4914607;29;20039;-82
2022/08/11 11:35:15;;;;;;;3.60;1.55;;;;;;;;;;4915950;29;20034;-81
2022/08/11 11:37:43;;;;;;;8.35;1.77;;;;;;;;;;4926297;29;20123;-81
2022/08/11 11:40:13;;;;;;;6.93;1.65;;;;;;;;;;4908865;29;20051;-82
2022/08/11 11:42:39;;;;;;;4.15;1.92;;;;;;;;;;4881271;29;20123;-82
2022/08/11 11:45:05;;;;;;;4.45;1.50;;;;;;;;;;4898603;29;20555;-82
2022/08/11 11:47:31;;;;;;;6.00;1.70;;;;;;;;;;4939576;29;20480;-82
2022/08/11 11:49:57;;;;;;;6.30;1.63;;;;;;;;;;4945715;29;20020;-83
2022/08/11 11:52:24;;;;;;;8.52;1.80;;;;;;;;;;4917708;29;20028;-82
2022/08/11 11:54:52;;;;;;;4.40;1.70;;;;;;;;;;4945947;29;20055;-83
2022/08/11 12:02:51;;;;;;;4.88;1.60;;;;;;;;;;4953860;29;20030;-82
2022/08/11 12:05:16;;;;;;;10.35;2.08;;;;;;;;;;4921511;29;20051;-82
2022/08/11 12:10:26;;;;;;;6.15;2.25;;;;;;;;;;4923730;29;20028;-83
2022/08/11 12:15:35;;;;;;;5.13;1.92;;;;;;;;;;4939888;29;20056;-83
2022/08/11 12:18:00;;;;;;;6.15;1.90;;;;;;;;;;4905326;29;20040;-82
2022/08/11 12:20:26;;;;;;;7.32;1.98;;;;;;;;;;4921539;29;20040;-82
2022/08/11 12:28:23;;;;;;;3.80;1.80;;;;;;;;;;4956186;29;20502;-82
2022/08/11 12:30:50;;;;;;;4.95;1.70;;;;;;;;;;4921543;29;20039;-81
2022/08/11 12:33:15;;;;;;;4.38;1.80;;;;;;;;;;4937610;29;20027;-81
2022/08/11 12:35:41;;;;;;;7.75;1.75;;;;;;;;;;4938342;29;20104;-82
2022/08/11 12:38:07;;;;;;;10.30;1.80;;;;;;;;;;4909655;29;21164;-81
2022/08/11 12:46:13;;;;;;;5.43;2.03;;;;;;;;;;4945351;29;20058;-82
2022/08/11 12:54:46;;;;;;;5.13;1.50;;;;;;;;;;4928522;29;20034;-82
2022/08/11 13:05:27;;;;;;;7.60;1.33;;;;;;;;;;4929538;29;20093;-82
2022/08/11 13:07:52;;;;;;;4.00;1.60;;;;;;;;;;4912063;29;20039;-82
2022/08/11 13:12:46;;;;;;;6.47;1.52;;;;;;;;;;4900019;29;20088;-82
2022/08/11 13:13:04;;;;;;;3.92;1.92;;;;;;;;;;4914294;29;20035;-82
2022/08/11 13:15:30;;;;;;;5.00;1.58;;;;;;;;;;4915676;29;20064;-82
2022/08/11 13:17:56;;;;;;;3.40;1.38;;;;;;;;;;4934708;29;20043;-82
2022/08/11 13:20:22;;;;;;;3.63;1.50;;;;;;;;;;4955971;29;20032;-82
2022/08/11 13:22:49;;;;;;;4.10;1.45;;;;;;;;;;4934721;29;20651;-83
2022/08/11 13:25:15;;;;;;;9.40;2.08;;;;;;;;;;4935387;29;20490;-82
2022/08/11 13:27:42;;;;;;;3.47;1.50;;;;;;;;;;4935236;29;20098;-82
2022/08/11 13:32:52;;;;;;;5.90;1.80;;;;;;;;;;4923206;29;20036;-82
2022/08/11 13:35:17;;;;;;;7.47;1.58;;;;;;;;;;4957757;29;20026;-82
2022/08/11 13:37:46;;;;;;;5.93;1.67;;;;;;;;;;4909594;29;20047;-82
2022/08/11 13:40:12;;;;;;;3.60;1.48;;;;;;;;;;4926819;29;20047;-82
2022/08/11 13:42:38;;;;;;;3.25;1.33;;;;;;;;;;4951911;29;20391;-82
2022/08/11 13:45:06;;;;;;;5.43;1.63;;;;;;;;;;4967724;29;20032;-82
2022/08/11 13:47:32;;;;;;;6.28;1.52;;;;;;;;;;4953343;29;20055;-82
2022/08/11 13:49:57;;;;;;;4.57;1.52;;;;;;;;;;4946780;29;20032;-81
2022/08/11 13:52:22;;;;;;;5.10;1.25;;;;;;;;;;4944019;29;20038;-81
2022/08/11 13:54:49;;;;;;;6.38;1.00;;;;;;;;;;4948109;29;20102;-81
2022/08/11 13:57:17;;;;;;;3.35;1.20;;;;;;;;;;4917464;29;20032;-81
2022/08/11 13:59:45;;;;;;;4.70;1.30;;;;;;;;;;4951515;29;20027;-82
2022/08/11 14:02:13;;;;;;;3.15;0.82;;;;;;;;;;4929725;29;20054;-82
2022/08/11 14:04:55;;;;;;;4.40;1.30;;;;;;;;;;4951496;28;20031;-83
2022/08/11 14:07:21;;;;;;;3.97;0.98;;;;;;;;;;4932392;29;20059;-82
2022/08/11 14:09:47;;;;;;;6.00;1.10;;;;;;;;;;4941660;29;20039;-81
2022/08/11 14:15:28;;;;;;;4.18;1.23;;;;;;;;;;4911481;29;20047;-83
2022/08/11 14:18:01;;;;;;;2.70;1.23;;;;;;;;;;4935249;29;20031;-82
2022/08/11 14:22:05;;;;;;;2.75;1.05;;;;;;;;;;4914235;29;20051;-82
2022/08/11 14:23:12;;;;;;;2.45;1.10;;;;;;;;;;4941870;29;20046;-82
2022/08/11 14:26:22;;;;;;;3.63;1.15;;;;;;;;;;4908028;29;20480;-82
2022/08/11 14:28:24;;;;;;;4.95;1.20;;;;;;;;;;4939942;29;20023;-82
2022/08/11 14:30:56;;;;;;;5.43;1.33;;;;;;;;;;4914620;29;20039;-83
2022/08/11 14:33:21;;;;;;;3.20;1.05;;;;;;;;;;4930424;29;20043;-83
2022/08/11 14:35:47;;;;;;;3.90;1.20;;;;;;;;;;4949473;29;20409;-83
2022/08/11 14:38:12;;;;;;;2.40;1.05;;;;;;;;;;4919692;29;20047;-83
2022/08/11 14:48:53;;;;;;;3.55;1.00;;;;;;;;;;4944665;29;20035;-82
2022/08/11 14:51:20;;;;;;;5.43;1.55;;;;;;;;;;4946780;29;20445;-83
2022/08/11 14:53:45;;;;;;;1.90;1.15;;;;;;;;;;4930333;29;20043;-82
2022/08/11 14:58:56;;;;;;;2.63;0.88;;;;;;;;;;4948010;29;20063;-82
2022/08/11 15:04:06;;;;;;;4.60;1.10;;;;;;;;;;4912327;29;20055;-82
2022/08/11 15:06:32;;;;;;;2.55;1.05;;;;;;;;;;4914182;29;20031;-82
2022/08/11 15:08:57;;;;;;;4.75;1.10;;;;;;;;;;4914255;29;20017;-83
2022/08/11 15:14:09;;;;;;;2.33;1.08;;;;;;;;;;4947200;29;20030;-82
2022/08/11 15:19:20;;;;;;;2.30;0.95;;;;;;;;;;4944856;29;20079;-82
2022/08/11 15:24:32;;;;;;;5.55;1.17;;;;;;;;;;4946573;29;20108;-82
2022/08/11 15:37:55;;;;;;;2.75;1.00;;;;;;;;;;4945256;29;20032;-82
2022/08/11 15:46:39;;;;;;;2.38;1.33;;;;;;;;;;4949903;29;20441;-84
2022/08/11 15:49:10;;;;;;;2.95;0.98;;;;;;;;;;4943225;29;20525;-82
2022/08/11 15:51:38;;;;;;;5.00;1.10;;;;;;;;;;4928329;29;20083;-82
2022/08/11 15:54:11;;;;;;;1.80;0.82;;;;;;;;;;4934100;29;20035;-82
2022/08/11 15:56:40;;;;;;;3.15;0.88;;;;;;;;;;4916927;29;20130;-82
2022/08/11 16:04:45;;;;;;;3.10;1.13;;;;;;;;;;4897645;29;20645;-83
2022/08/11 16:07:14;;;;;;;4.10;1.27;;;;;;;;;;4928647;29;20027;-82
2022/08/11 16:09:45;;;;;;;4.82;1.88;;;;;;;;;;4929476;29;20123;-82
2022/08/11 16:12:12;;;;;;;1.98;0.90;;;;;;;;;;4910724;29;20024;-83
2022/08/11 16:17:27;;;;;;;4.65;1.20;;;;;;;;;;4911976;29;20042;-82
2022/08/11 16:19:53;;;;;;;2.28;1.05;;;;;;;;;;4926349;29;20032;-82
2022/08/11 16:22:28;;;;;;;3.90;1.08;;;;;;;;;;4912347;29;20436;-82
2022/08/11 16:24:53;;;;;;;4.28;1.30;;;;;;;;;;4897457;29;20028;-84
2022/08/11 16:27:19;;;;;;;3.17;1.35;;;;;;;;;;4913213;29;20151;-83
2022/08/11 16:29:50;;;;;;;5.75;1.52;;;;;;;;;;4928956;29;20074;-81
2022/08/11 16:32:20;;;;;;;1.63;1.02;;;;;;;;;;4911950;29;20035;-82
2022/08/11 16:40:28;;;;;;;2.17;1.08;;;;;;;;;;4895154;29;20119;-82
2022/08/11 16:48:27;;;;;;;1.85;1.15;;;;;;;;;;4926015;29;20046;-81
2022/08/11 16:50:53;;;;;;;4.32;1.02;;;;;;;;;;4930065;29;20039;-82
2022/08/11 16:53:18;;;;;;;1.80;0.93;;;;;;;;;;4915842;29;20051;-82
2022/08/11 16:55:45;;;;;;;4.60;1.15;;;;;;;;;;4927724;29;20538;-81
2022/08/11 17:00:57;;;;;;;3.22;1.08;;;;;;;;;;4914490;29;20031;-82
2022/08/11 17:14:39;;;;;;;2.88;1.15;;;;;;;;;;4922533;29;20032;-83
2022/08/11 17:17:07;;;;;;;6.03;1.30;;;;;;;;;;4949286;29;20027;-82
2022/08/11 17:19:33;;;;;;;3.35;1.20;;;;;;;;;;4903763;29;20063;-83
2022/08/11 17:24:44;;;;;;;5.63;1.33;;;;;;;;;;4922129;29;20399;-82
2022/08/11 17:27:09;;;;;;;2.60;1.10;;;;;;;;;;4889135;29;20027;-82
2022/08/11 17:29:40;;;;;;;6.78;1.75;;;;;;;;;;4905095;29;20499;-80
2022/08/11 17:37:38;;;;;;;4.43;1.17;;;;;;;;;;4934718;29;20100;-82
2022/08/11 17:40:06;;;;;;;2.45;1.20;;;;;;;;;;4922480;29;20089;-82
2022/08/11 17:50:47;;;;;;;5.85;1.50;;;;;;;;;;4933649;29;20483;-82
2022/08/11 18:01:38;;;;;;;7.35;1.65;;;;;;;;;;4908200;29;20078;-82
2022/08/11 18:04:05;;;;;;;3.83;1.42;;;;;;;;;;4902684;29;20480;-83
2022/08/11 18:06:30;;;;;;;6.95;1.75;;;;;;;;;;4896044;29;20522;-81
